createdAt,value
2023-09-27T00:29:35.338Z,23.19
2023-09-27T00:32:18.949Z,23.21
2023-09-27T00:34:52.287Z,23.20
2023-09-27T00:37:29.789Z,23.19
2023-09-27T00:40:12.849Z,23.11
2023-09-27T00:42:49.740Z,23.10
2023-09-27T00:45:24.451Z,23.08
2023-09-27T00:48:00.812Z,23.07
2023-09-27T00:50:36.941Z,23.07
2023-09-27T00:53:10.442Z,23.04
2023-09-27T00:55:45.176Z,22.99
2023-09-27T00:58:21.918Z,22.98
2023-09-27T01:00:55.064Z,22.92
2023-09-27T01:03:29.951Z,22.82
2023-09-27T01:06:03.861Z,22.79
2023-09-27T01:08:36.716Z,22.81
2023-09-27T01:11:09.686Z,22.78
2023-09-27T01:13:43.844Z,22.77
2023-09-27T01:16:16.631Z,22.79
2023-09-27T01:18:49.488Z,22.79
2023-09-27T01:21:22.245Z,22.73
2023-09-27T01:23:56.349Z,22.73
2023-09-27T01:26:32.026Z,22.68
2023-09-27T01:29:06.493Z,22.64
2023-09-27T01:31:41.330Z,22.61
2023-09-27T01:34:17.722Z,22.60
2023-09-27T01:36:50.393Z,22.55
2023-09-27T01:39:25.500Z,22.48
2023-09-27T01:41:58.308Z,22.42
2023-09-27T01:44:33.144Z,22.39
2023-09-27T01:47:07.389Z,22.39
2023-09-27T01:49:40.182Z,22.37
2023-09-27T01:52:12.898Z,22.35
2023-09-27T01:54:46.173Z,22.37
2023-09-27T01:57:19.072Z,22.39
2023-09-27T01:59:51.911Z,22.38
2023-09-27T02:02:24.973Z,22.37
2023-09-27T02:04:58.089Z,22.39
2023-09-27T02:07:33.139Z,22.41
2023-09-27T02:10:07.056Z,22.46
2023-09-27T02:12:40.904Z,22.37
2023-09-27T02:15:19.322Z,22.30
2023-09-27T02:17:53.147Z,22.30
2023-09-27T02:20:27.523Z,22.33
2023-09-27T02:23:00.280Z,22.34
2023-09-27T02:25:34.095Z,22.35
2023-09-27T03:09:38.589Z,22.24
2023-09-27T03:12:12.957Z,22.21
2023-09-27T03:14:46.137Z,22.19
2023-09-27T03:17:18.940Z,22.16
2023-09-27T03:19:54.330Z,22.15
2023-09-27T03:22:27.452Z,22.17
2023-09-27T03:25:02.785Z,22.18
2023-09-27T03:27:37.249Z,22.19
2023-09-27T03:30:17.379Z,22.20
2023-09-27T03:32:58.482Z,22.21
2023-09-27T03:35:31.344Z,22.18
2023-09-27T03:38:05.714Z,22.17
2023-09-27T03:40:47.374Z,22.17
2023-09-27T03:43:25.557Z,22.21
2023-09-27T03:45:58.329Z,22.22
2023-09-27T03:48:31.152Z,22.20
2023-09-27T03:51:04.667Z,22.19
2023-09-27T03:53:37.931Z,22.19
2023-09-27T03:56:12.905Z,22.18
2023-09-27T03:58:45.819Z,22.21
2023-09-27T04:01:18.825Z,22.27
2023-09-27T04:03:51.443Z,22.35
2023-09-27T04:06:26.931Z,22.42
2023-09-27T04:09:02.398Z,22.50
2023-09-27T04:11:37.028Z,22.57
2023-09-27T04:14:12.923Z,22.65
2023-09-27T04:16:45.861Z,22.72
2023-09-27T04:19:18.581Z,22.79
2023-09-27T04:21:57.437Z,22.85
2023-09-27T04:24:41.403Z,22.90
2023-09-27T04:27:22.073Z,22.97
2023-09-27T04:30:21.257Z,23.02
2023-09-27T04:32:57.411Z,23.06
2023-09-27T04:35:30.661Z,23.11
2023-09-27T04:38:11.363Z,23.14
2023-09-27T04:40:46.669Z,23.12
2023-09-27T04:43:23.314Z,23.13
2023-09-27T04:46:01.942Z,23.19
2023-09-27T04:48:57.328Z,23.25
2023-09-27T04:51:37.457Z,23.27
2023-09-27T04:54:12.537Z,23.25
2023-09-27T04:56:45.677Z,23.22
2023-09-27T04:59:23.354Z,23.24
2023-09-27T05:01:58.848Z,23.26
2023-09-27T05:04:33.354Z,23.25
2023-09-27T05:07:12.445Z,23.24
2023-09-27T05:09:46.361Z,23.22
2023-09-27T05:12:19.433Z,23.13
2023-09-27T05:14:52.468Z,22.99
2023-09-27T05:17:25.725Z,22.90
2023-09-27T05:19:59.666Z,22.82
2023-09-27T05:22:32.839Z,22.89
2023-09-27T05:25:08.611Z,22.95
2023-09-27T05:27:41.629Z,23.05
2023-09-27T05:30:22.027Z,23.18
2023-09-27T05:33:10.143Z,23.28
2023-09-27T05:35:57.801Z,23.37
2023-09-27T05:38:32.806Z,23.39
2023-09-27T05:41:21.993Z,23.40
2023-09-27T05:43:57.159Z,23.37
2023-09-27T05:46:31.145Z,23.40
2023-09-27T05:49:06.673Z,23.47
2023-09-27T05:51:42.321Z,23.52
2023-09-27T05:54:15.521Z,23.50
2023-09-27T05:56:54.414Z,23.54
2023-09-27T05:59:27.813Z,23.59
2023-09-27T06:02:02.025Z,23.62
2023-09-27T06:04:35.023Z,23.68
2023-09-27T06:07:09.488Z,23.74
2023-09-27T06:09:47.241Z,23.78
2023-09-27T06:12:20.690Z,23.79
2023-09-27T06:14:53.815Z,23.84
2023-09-27T06:17:28.662Z,23.90
2023-09-27T06:20:11.778Z,23.96
2023-09-27T06:22:54.371Z,23.98
2023-09-27T06:25:37.518Z,23.94
2023-09-27T06:28:15.151Z,23.94
2023-09-27T06:30:47.992Z,23.94
2023-09-27T06:33:21.102Z,23.91
2023-09-27T06:35:54.947Z,23.93
2023-09-27T06:38:30.110Z,23.97
2023-09-27T06:41:03.254Z,23.99
2023-09-27T06:43:37.190Z,24.03
2023-09-27T06:46:17.897Z,24.06
2023-09-27T06:48:54.206Z,24.08
2023-09-27T06:51:30.898Z,24.10
2023-09-27T06:54:03.957Z,24.12
2023-09-27T06:56:38.425Z,24.12
2023-09-27T06:59:22.061Z,24.15
2023-09-27T07:01:58.202Z,24.21
2023-09-27T07:04:30.999Z,24.22
2023-09-27T07:07:04.019Z,24.22
2023-09-27T07:09:40.306Z,24.25
2023-09-27T07:12:13.242Z,24.31
2023-09-27T07:14:46.709Z,24.36
2023-09-27T07:17:20.196Z,24.42
2023-09-27T07:19:56.976Z,24.41
2023-09-27T07:22:32.579Z,24.40
2023-09-27T07:25:13.651Z,24.41
2023-09-27T07:27:47.555Z,24.45
2023-09-27T07:30:29.117Z,24.49
2023-09-27T07:33:01.922Z,24.47
2023-09-27T07:35:35.203Z,24.41
2023-09-27T07:38:09.724Z,24.39
2023-09-27T07:40:42.989Z,24.37
2023-09-27T07:43:16.924Z,24.38
2023-09-27T07:45:49.923Z,24.44
2023-09-27T07:48:23.207Z,24.50
2023-09-27T07:50:56.201Z,24.52
2023-09-27T07:53:40.742Z,24.55
2023-09-27T07:56:22.749Z,24.57
2023-09-27T07:58:57.085Z,24.60
2023-09-27T08:01:30.425Z,24.64
2023-09-27T08:04:11.369Z,24.69
2023-09-27T08:06:46.647Z,24.75
2023-09-27T08:09:38.871Z,24.79
2023-09-27T08:12:14.656Z,24.86
2023-09-27T08:14:47.272Z,24.90
2023-09-27T08:17:21.141Z,24.94
2023-09-27T08:19:57.999Z,24.99
2023-09-27T08:22:33.944Z,25.01
2023-09-27T08:25:10.255Z,25.06
2023-09-27T08:27:45.131Z,25.11
2023-09-27T08:30:18.168Z,25.17
2023-09-27T08:33:02.705Z,25.22
2023-09-27T08:35:36.431Z,25.26
2023-09-27T08:38:14.525Z,25.31
2023-09-27T08:40:49.145Z,25.35
2023-09-27T08:43:34.431Z,25.39
2023-09-27T08:46:10.849Z,25.44
2023-09-27T08:49:11.205Z,25.48
2023-09-27T08:51:48.178Z,25.52
2023-09-27T08:54:26.186Z,25.57
2023-09-27T08:56:59.879Z,25.63
2023-09-27T08:59:40.566Z,25.67
2023-09-27T09:02:16.818Z,25.71
2023-09-27T09:04:51.931Z,25.75
2023-09-27T09:07:30.253Z,25.76
2023-09-27T09:10:12.412Z,25.79
2023-09-27T09:13:29.634Z,25.83
2023-09-27T09:16:31.495Z,25.87
2023-09-27T09:19:42.985Z,25.92
2023-09-27T09:22:17.646Z,25.95
2023-09-27T09:25:02.720Z,26.00
2023-09-27T09:27:38.328Z,26.04
2023-09-27T09:30:15.699Z,26.09
2023-09-27T09:32:57.617Z,26.11
2023-09-27T09:35:34.081Z,26.14
2023-09-27T09:38:08.857Z,26.17
2023-09-27T09:43:46.839Z,26.24
2023-09-27T09:46:27.510Z,26.23
2023-09-27T09:49:00.582Z,26.26
2023-09-27T09:51:33.918Z,26.31
2023-09-27T09:54:10.541Z,26.33
2023-09-27T09:56:57.192Z,26.37
2023-09-27T09:59:41.141Z,26.39
2023-09-27T10:02:24.682Z,26.41
2023-09-27T10:05:00.408Z,26.44
2023-09-27T10:07:34.348Z,26.48
2023-09-27T10:10:10.028Z,26.52
2023-09-27T10:12:46.029Z,26.55
2023-09-27T10:15:22.982Z,26.57
2023-09-27T10:18:34.861Z,26.57
2023-09-27T10:21:14.621Z,26.59
2023-09-27T10:24:05.255Z,26.59
2023-09-27T10:26:41.526Z,26.61
2023-09-27T10:29:18.800Z,26.62
2023-09-27T10:32:24.191Z,26.63
2023-09-27T10:34:57.869Z,26.64
2023-09-27T10:38:07.858Z,26.65
2023-09-27T10:40:48.741Z,26.70
2023-09-27T10:43:47.531Z,26.73
2023-09-27T10:46:21.296Z,26.77
2023-09-27T10:49:02.443Z,26.79
2023-09-27T10:51:36.863Z,26.81
2023-09-27T10:54:15.770Z,26.85
2023-09-27T10:56:54.100Z,26.89
2023-09-27T10:59:31.355Z,26.94
2023-09-27T11:02:11.144Z,26.98
2023-09-27T11:04:57.272Z,27.03
2023-09-27T11:07:47.676Z,27.08
2023-09-27T11:10:38.847Z,27.14
2023-09-27T11:13:15.309Z,27.18
2023-09-27T11:15:48.194Z,27.20
2023-09-27T11:18:21.310Z,27.22
2023-09-27T11:20:54.521Z,27.25
2023-09-27T11:23:27.755Z,27.28
2023-09-27T11:26:06.063Z,27.31
2023-09-27T11:28:38.691Z,27.34
2023-09-27T11:31:23.304Z,27.37
2023-09-27T11:34:12.692Z,27.40
2023-09-27T11:36:46.766Z,27.43
2023-09-27T11:39:28.848Z,27.48
2023-09-27T11:42:03.214Z,27.53
2023-09-27T11:44:37.007Z,27.56
2023-09-27T11:47:14.230Z,27.60
2023-09-27T11:49:51.234Z,27.63
2023-09-27T11:52:24.495Z,27.66
2023-09-27T11:54:58.238Z,27.68
2023-09-27T11:57:30.959Z,27.72
2023-09-27T12:00:09.792Z,27.77
2023-09-27T12:02:55.860Z,27.81
2023-09-27T12:05:31.154Z,27.86
2023-09-27T12:08:06.151Z,27.89
2023-09-27T12:10:38.891Z,27.92
2023-09-27T12:13:12.174Z,27.96
2023-09-27T12:15:45.363Z,27.99
2023-09-27T12:18:19.084Z,28.03
2023-09-27T12:20:52.483Z,28.07
2023-09-27T12:23:25.599Z,28.11
2023-09-27T12:26:09.848Z,28.15
2023-09-27T12:28:44.694Z,28.18
2023-09-27T12:31:25.245Z,28.20
2023-09-27T12:34:10.924Z,28.26
2023-09-27T12:36:45.044Z,28.34
2023-09-27T12:39:20.688Z,28.41
2023-09-27T12:41:53.501Z,28.47
2023-09-27T12:44:26.317Z,28.50
2023-09-27T12:47:07.745Z,28.50
2023-09-27T12:49:40.940Z,28.53
2023-09-27T12:52:16.434Z,28.58
2023-09-27T12:54:49.343Z,28.63
2023-09-27T12:57:21.836Z,28.69
2023-09-27T12:59:54.464Z,28.76
2023-09-27T13:02:28.261Z,28.82
2023-09-27T13:05:02.544Z,28.87
2023-09-27T13:07:35.326Z,28.93
2023-09-27T13:10:08.959Z,29.01
2023-09-27T13:12:43.700Z,29.08
2023-09-27T13:15:17.755Z,29.12
2023-09-27T13:17:51.081Z,29.18
2023-09-27T13:20:24.216Z,29.22
2023-09-27T13:22:57.992Z,29.24
2023-09-27T13:25:30.612Z,29.28
2023-09-27T13:28:04.986Z,29.36
2023-09-27T13:30:38.101Z,29.45
2023-09-27T13:33:12.919Z,29.52
2023-09-27T13:35:47.175Z,29.56
2023-09-27T13:38:20.200Z,29.62
2023-09-27T13:40:53.325Z,29.67
2023-09-27T13:43:26.405Z,29.67
2023-09-27T13:46:03.367Z,29.68
2023-09-27T13:48:41.928Z,29.80
2023-09-27T13:51:18.704Z,29.89
2023-09-27T13:53:55.181Z,30.04
2023-09-27T13:56:33.968Z,30.22
2023-09-27T13:59:07.496Z,30.44
2023-09-27T14:01:40.672Z,30.62
2023-09-27T14:04:15.798Z,30.71
2023-09-27T14:06:49.277Z,30.78
2023-09-27T14:09:22.579Z,30.83
2023-09-27T14:11:55.547Z,30.78
2023-09-27T14:14:28.658Z,30.66
2023-09-27T14:17:08.868Z,30.60
2023-09-27T14:19:43.064Z,30.65
2023-09-27T14:22:16.953Z,30.72
2023-09-27T14:24:49.987Z,30.87
2023-09-27T14:27:22.498Z,30.99
2023-09-27T14:29:55.752Z,31.07
2023-09-27T14:32:28.838Z,31.08
2023-09-27T14:35:01.781Z,31.09
2023-09-27T14:37:36.629Z,31.06
2023-09-27T14:40:12.440Z,31.09
2023-09-27T14:42:46.100Z,31.13
2023-09-27T14:45:30.549Z,31.18
2023-09-27T14:48:06.245Z,31.25
2023-09-27T14:50:42.522Z,31.36
2023-09-27T14:53:16.328Z,31.41
2023-09-27T14:55:49.678Z,31.42
2023-09-27T14:58:22.923Z,31.43
2023-09-27T15:00:56.749Z,31.40
2023-09-27T15:03:29.580Z,31.35
2023-09-27T15:06:05.243Z,31.23
2023-09-27T15:08:38.140Z,31.11
2023-09-27T15:11:12.629Z,30.94
2023-09-27T15:13:52.348Z,30.72
2023-09-27T15:16:54.181Z,30.55
2023-09-27T15:20:10.328Z,30.36
2023-09-27T15:22:57.710Z,30.14
2023-09-27T15:30:19.594Z,29.77
2023-09-27T15:33:15.218Z,29.55
2023-09-27T15:36:07.712Z,29.38
2023-09-27T15:38:48.138Z,29.27
2023-09-27T15:41:29.218Z,29.15
2023-09-27T15:44:15.876Z,29.03
2023-09-27T15:47:02.043Z,28.90
2023-09-27T15:49:36.913Z,28.78
2023-09-27T15:52:36.745Z,28.64
2023-09-27T15:55:13.984Z,28.51
2023-09-27T15:57:54.713Z,28.38
2023-09-27T16:01:16.742Z,28.25
2023-09-27T16:04:13.123Z,28.10
2023-09-27T16:07:04.093Z,27.98
2023-09-27T16:10:56.941Z,27.87
2023-09-27T16:13:57.125Z,27.73
2023-09-27T16:16:49.392Z,27.63
2023-09-27T16:19:44.972Z,27.54
2023-09-27T16:22:26.820Z,27.46
2023-09-27T16:25:09.059Z,27.37
2023-09-27T16:27:49.325Z,27.26
2023-09-27T16:30:26.192Z,27.17
2023-09-27T16:33:04.313Z,27.09
2023-09-27T16:35:44.663Z,27.01
2023-09-27T16:38:25.208Z,26.93
2023-09-27T16:41:15.040Z,26.85
2023-09-27T16:44:08.858Z,26.76
2023-09-27T16:50:02.919Z,26.56
2023-09-27T16:53:02.808Z,26.49
2023-09-27T16:56:06.428Z,26.42
2023-09-27T16:58:50.874Z,26.34
2023-09-27T17:02:18.570Z,26.28
2023-09-27T17:05:01.395Z,26.19
2023-09-27T17:07:35.324Z,26.10
2023-09-27T17:10:13.601Z,26.03
2023-09-27T17:13:02.674Z,25.97
2023-09-27T17:15:37.494Z,25.90
2023-09-27T17:18:10.863Z,25.85
2023-09-27T17:20:44.942Z,25.80
2023-09-27T17:23:21.317Z,25.74
2023-09-27T17:25:54.597Z,25.68
2023-09-27T17:28:32.009Z,25.63
2023-09-27T17:31:09.669Z,25.58
2023-09-27T17:33:55.703Z,25.51
2023-09-27T17:36:29.178Z,25.45
2023-09-27T17:39:03.948Z,25.39
2023-09-27T17:41:38.366Z,25.31
2023-09-27T17:44:11.686Z,25.25
2023-09-27T17:46:47.561Z,25.20
2023-09-27T17:49:23.962Z,25.18
2023-09-27T17:51:56.912Z,25.13
2023-09-27T17:54:30.023Z,25.09
2023-09-27T17:57:02.793Z,25.06
2023-09-27T17:59:57.183Z,25.01
2023-09-27T18:02:38.158Z,24.97
2023-09-27T18:05:26.574Z,24.91
2023-09-27T18:08:03.485Z,24.87
2023-09-27T18:10:36.933Z,24.85
2023-09-27T18:13:09.878Z,24.81
2023-09-27T18:15:46.689Z,24.77
2023-09-27T18:18:28.790Z,24.71
2023-09-27T18:21:20.806Z,24.67
2023-09-27T18:23:57.873Z,24.64
2023-09-27T18:26:39.988Z,24.58
2023-09-27T18:29:13.268Z,24.53
2023-09-27T18:31:52.757Z,24.47
2023-09-27T18:34:28.968Z,24.42
2023-09-27T18:37:12.784Z,24.37
2023-09-27T18:39:46.134Z,24.30
2023-09-27T18:42:23.567Z,24.25
2023-09-27T18:45:13.194Z,24.21
2023-09-27T18:47:57.010Z,24.15
2023-09-27T18:50:37.517Z,24.11
2023-09-27T18:53:14.933Z,24.06
2023-09-27T18:55:55.462Z,24.03
2023-09-27T18:58:33.014Z,23.98
2023-09-27T19:01:10.862Z,23.95
2023-09-27T19:03:52.684Z,23.91
2023-09-27T19:06:27.867Z,23.89
2023-09-27T19:09:13.156Z,23.86
2023-09-27T19:11:49.858Z,23.81
2023-09-27T19:14:31.573Z,23.76
2023-09-27T19:17:20.161Z,23.73
2023-09-27T19:19:59.117Z,23.70
2023-09-27T19:22:42.204Z,23.67
2023-09-27T19:25:36.248Z,23.65
2023-09-27T19:28:26.199Z,23.63
2023-09-27T19:31:20.881Z,23.59
2023-09-27T19:33:59.943Z,23.55
2023-09-27T19:36:35.013Z,23.53
2023-09-27T19:39:19.263Z,23.51
2023-09-27T19:41:52.451Z,23.49
2023-09-27T19:44:26.431Z,23.45
2023-09-27T19:47:00.369Z,23.42
2023-09-27T19:49:35.713Z,23.40
2023-09-27T19:52:09.330Z,23.38
2023-09-27T19:54:48.299Z,23.42
2023-09-27T19:57:24.768Z,23.51
2023-09-27T19:59:59.204Z,23.59
2023-09-27T20:02:35.231Z,23.64
2023-09-27T20:05:12.671Z,23.70
2023-09-27T20:07:49.541Z,23.76
2023-09-27T20:10:24.965Z,23.76
2023-09-27T20:12:59.394Z,23.77
2023-09-27T20:15:34.233Z,23.76
2023-09-27T20:18:10.088Z,23.75
2023-09-27T20:20:45.906Z,23.74
2023-09-27T20:23:20.155Z,23.74
2023-09-27T20:25:53.777Z,23.73
2023-09-27T20:28:27.282Z,23.76
2023-09-27T20:31:01.043Z,23.78
2023-09-27T20:33:37.994Z,23.79
2023-09-27T20:36:14.694Z,23.82
2023-09-27T20:38:47.472Z,23.84
2023-09-27T20:41:27.292Z,23.87
2023-09-27T20:44:01.088Z,23.90
2023-09-27T20:46:34.400Z,23.92
2023-09-27T20:49:08.432Z,23.93
2023-09-27T20:51:43.152Z,23.91
2023-09-27T20:54:17.146Z,23.86
2023-09-27T20:56:54.262Z,23.84
2023-09-27T20:59:28.128Z,23.84
2023-09-27T21:02:02.645Z,23.87
2023-09-27T21:04:35.501Z,23.91
2023-09-27T21:07:10.475Z,23.94
2023-09-27T21:09:43.306Z,23.96
2023-09-27T21:12:16.405Z,23.97
2023-09-27T21:14:49.848Z,23.98
2023-09-27T21:17:23.271Z,23.95
2023-09-27T21:20:00.039Z,23.90
2023-09-27T21:22:41.050Z,23.86
2023-09-27T21:25:22.594Z,23.87
2023-09-27T21:27:57.347Z,23.88
2023-09-27T21:30:36.937Z,23.88
2023-09-27T21:33:18.850Z,23.88
2023-09-27T21:35:58.221Z,23.87
2023-09-27T21:38:31.629Z,23.81
2023-09-27T21:41:04.306Z,23.74
2023-09-27T21:43:38.218Z,23.71
2023-09-27T21:46:21.581Z,23.66
2023-09-27T21:48:56.480Z,23.64
2023-09-27T21:51:28.862Z,23.63
2023-09-27T21:54:01.900Z,23.61
2023-09-27T21:56:37.134Z,23.56
2023-09-27T21:59:10.083Z,23.55
2023-09-27T22:01:42.776Z,23.52
2023-09-27T22:04:15.556Z,23.48
2023-09-27T22:06:48.936Z,23.42
2023-09-27T22:09:24.036Z,23.40
2023-09-27T22:11:57.382Z,23.39
2023-09-27T22:14:31.908Z,23.42
2023-09-27T22:17:09.690Z,23.45
2023-09-27T22:19:42.272Z,23.46
2023-09-27T22:22:21.829Z,23.48
2023-09-27T22:24:54.955Z,23.49
2023-09-27T22:27:27.928Z,23.48
2023-09-27T22:30:01.314Z,23.49
2023-09-27T22:32:40.008Z,23.49
2023-09-27T22:35:23.803Z,23.43
2023-09-27T22:37:58.363Z,23.37
2023-09-27T22:40:33.066Z,23.31
2023-09-27T22:43:06.661Z,23.23
2023-09-27T22:45:40.600Z,23.16
2023-09-27T22:48:15.543Z,23.16
2023-09-27T22:50:51.702Z,23.13
2023-09-27T22:53:30.319Z,23.14
2023-09-27T22:56:11.626Z,23.16
2023-09-27T22:58:45.825Z,23.13
2023-09-27T23:04:59.102Z,23.06
2023-09-27T23:07:34.350Z,23.07
2023-09-27T23:10:15.496Z,23.11
2023-09-27T23:13:01.074Z,23.16
2023-09-27T23:15:41.152Z,23.18
2023-09-27T23:18:14.739Z,23.20
2023-09-27T23:20:47.241Z,23.21
2023-09-27T23:23:20.626Z,23.19
2023-09-27T23:26:02.141Z,23.17
2023-09-27T23:28:44.782Z,23.15
2023-09-27T23:31:20.540Z,23.09
2023-09-27T23:33:54.149Z,23.07
2023-09-27T23:36:27.646Z,23.05
2023-09-27T23:39:04.918Z,22.97
2023-09-27T23:41:41.303Z,22.91
2023-09-27T23:44:16.069Z,22.91
2023-09-27T23:46:52.530Z,22.91
2023-09-27T23:49:25.777Z,22.89
2023-09-27T23:52:00.609Z,22.86
2023-09-27T23:54:35.483Z,22.81
2023-09-27T23:57:08.649Z,22.78
2023-09-27T23:59:42.167Z,22.80
